sensor_id;sensor_type;location;lat;lon;timestamp;pressure;altitude;pressure_sealevel;temperature;humidity
80678;BME280;70042;52.494;5.502;2023-07-24T00:00:19;100496.75;;;22.57;60.67
80678;BME280;70042;52.494;5.502;2023-07-24T00:02:44;100504.81;;;22.56;60.61
80678;BME280;70042;52.494;5.502;2023-07-24T00:05:09;100504.81;;;22.56;60.78
80678;BME280;70042;52.494;5.502;2023-07-24T00:07:38;100503.09;;;22.55;60.68
80678;BME280;70042;52.494;5.502;2023-07-24T00:10:04;100502.22;;;22.54;60.68
80678;BME280;70042;52.494;5.502;2023-07-24T00:12:29;100500.53;;;22.53;60.79
80678;BME280;70042;52.494;5.502;2023-07-24T00:14:55;100501.44;;;22.52;60.73
80678;BME280;70042;52.494;5.502;2023-07-24T00:17:20;100491.66;;;22.53;60.56
80678;BME280;70042;52.494;5.502;2023-07-24T00:19:45;100492.53;;;22.53;61.05
80678;BME280;70042;52.494;5.502;2023-07-24T00:22:11;100497.88;;;22.53;60.47
80678;BME280;70042;52.494;5.502;2023-07-24T00:24:36;100495.09;;;22.55;61.03
80678;BME280;70042;52.494;5.502;2023-07-24T00:27:02;100500.44;;;22.55;60.79
80678;BME280;70042;52.494;5.502;2023-07-24T00:29:28;100501.28;;;22.55;60.68
80678;BME280;70042;52.494;5.502;2023-07-24T00:31:53;100493.31;;;22.55;60.79
80678;BME280;70042;52.494;5.502;2023-07-24T00:34:18;100501.28;;;22.55;60.70
80678;BME280;70042;52.494;5.502;2023-07-24T00:36:44;100495.03;;;22.56;60.51
80678;BME280;70042;52.494;5.502;2023-07-24T00:39:09;100495.03;;;22.56;60.70
80678;BME280;70042;52.494;5.502;2023-07-24T00:41:34;100485.22;;;22.57;60.50
80678;BME280;70042;52.494;5.502;2023-07-24T00:44:00;100487.06;;;22.56;60.68
80678;BME280;70042;52.494;5.502;2023-07-24T00:46:25;100483.44;;;22.57;60.59
80678;BME280;70042;52.494;5.502;2023-07-24T00:48:52;100465.75;;;22.56;60.89
80678;BME280;70042;52.494;5.502;2023-07-24T00:51:19;100457.75;;;22.56;60.54
80678;BME280;70042;52.494;5.502;2023-07-24T00:53:45;100456.03;;;22.55;60.75
80678;BME280;70042;52.494;5.502;2023-07-24T00:56:12;100456.03;;;22.55;60.77
80678;BME280;70042;52.494;5.502;2023-07-24T00:58:38;100460.44;;;22.56;60.84
80678;BME280;70042;52.494;5.502;2023-07-24T01:01:04;100458.69;;;22.55;60.81
80678;BME280;70042;52.494;5.502;2023-07-24T01:03:34;100455.09;;;22.56;60.65
80678;BME280;70042;52.494;5.502;2023-07-24T01:06:01;100450.72;;;22.55;60.76
80678;BME280;70042;52.494;5.502;2023-07-24T01:08:27;100442.63;;;22.57;60.64
80678;BME280;70042;52.494;5.502;2023-07-24T01:10:53;100432.06;;;22.55;60.57
80678;BME280;70042;52.494;5.502;2023-07-24T01:13:22;100427.66;;;22.54;60.85
80678;BME280;70042;52.494;5.502;2023-07-24T01:16:03;100437.38;;;22.55;60.72
80678;BME280;70042;52.494;5.502;2023-07-24T01:18:30;100445.38;;;22.55;60.92
80678;BME280;70042;52.494;5.502;2023-07-24T01:20:57;100434.72;;;22.55;60.73
80678;BME280;70042;52.494;5.502;2023-07-24T01:23:55;100429.41;;;22.55;60.85
80678;BME280;70042;52.494;5.502;2023-07-24T01:26:24;100435.66;;;22.54;60.80
80678;BME280;70042;52.494;5.502;2023-07-24T01:28:50;100435.75;;;22.53;60.90
80678;BME280;70042;52.494;5.502;2023-07-24T01:31:16;100416.31;;;22.51;60.50
80678;BME280;70042;52.494;5.502;2023-07-24T01:33:43;100427.84;;;22.51;60.92
80678;BME280;70042;52.494;5.502;2023-07-24T01:36:08;100432.38;;;22.49;60.79
80678;BME280;70042;52.494;5.502;2023-07-24T01:38:35;100440.38;;;22.49;60.78
80678;BME280;70042;52.494;5.502;2023-07-24T01:41:00;100430.66;;;22.48;60.68
80678;BME280;70042;52.494;5.502;2023-07-24T01:43:26;100433.31;;;22.48;60.94
80678;BME280;70042;52.494;5.502;2023-07-24T01:45:53;100433.31;;;22.48;60.67
80678;BME280;70042;52.494;5.502;2023-07-24T01:48:18;100432.38;;;22.49;60.69
80678;BME280;70042;52.494;5.502;2023-07-24T01:50:44;100437.72;;;22.49;60.79
80678;BME280;70042;52.494;5.502;2023-07-24T01:53:09;100435.03;;;22.49;60.80
80678;BME280;70042;52.494;5.502;2023-07-24T01:55:35;100427.06;;;22.49;61.02
80678;BME280;70042;52.494;5.502;2023-07-24T01:58:00;100422.66;;;22.48;60.93
80678;BME280;70042;52.494;5.502;2023-07-24T02:00:25;100430.59;;;22.50;60.71
80678;BME280;70042;52.494;5.502;2023-07-24T02:02:51;100429.72;;;22.49;60.93
80678;BME280;70042;52.494;5.502;2023-07-24T02:05:16;100419.06;;;22.49;60.90
80678;BME280;70042;52.494;5.502;2023-07-24T02:07:41;100419.06;;;22.49;60.96
80678;BME280;70042;52.494;5.502;2023-07-24T02:10:07;100413.75;;;22.49;61.05
80678;BME280;70042;52.494;5.502;2023-07-24T02:12:33;100419.06;;;22.49;60.73
80678;BME280;70042;52.494;5.502;2023-07-24T02:14:58;100419.06;;;22.49;60.67
80678;BME280;70042;52.494;5.502;2023-07-24T02:17:24;100418.28;;;22.47;60.76
80678;BME280;70042;52.494;5.502;2023-07-24T02:19:50;100417.34;;;22.48;61.11
80678;BME280;70042;52.494;5.502;2023-07-24T02:22:15;100417.34;;;22.48;60.79
80678;BME280;70042;52.494;5.502;2023-07-24T02:24:41;100420.00;;;22.48;60.89
80678;BME280;70042;52.494;5.502;2023-07-24T02:27:06;100412.88;;;22.49;60.79
80678;BME280;70042;52.494;5.502;2023-07-24T02:29:32;100404.13;;;22.47;60.95
80678;BME280;70042;52.494;5.502;2023-07-24T02:31:58;100401.53;;;22.45;60.72
80678;BME280;70042;52.494;5.502;2023-07-24T02:34:23;100394.47;;;22.44;60.99
80678;BME280;70042;52.494;5.502;2023-07-24T02:44:10;100385.72;;;22.42;61.04
80678;BME280;70042;52.494;5.502;2023-07-24T02:46:36;100393.69;;;22.42;60.67
80678;BME280;70042;52.494;5.502;2023-07-24T02:49:01;100387.59;;;22.40;61.00
80678;BME280;70042;52.494;5.502;2023-07-24T02:51:27;100384.78;;;22.43;60.79
80678;BME280;70042;52.494;5.502;2023-07-24T02:56:19;100385.72;;;22.42;60.84
80678;BME280;70042;52.494;5.502;2023-07-24T02:58:45;100383.06;;;22.42;60.86
80678;BME280;70042;52.494;5.502;2023-07-24T03:01:11;100385.72;;;22.42;60.85
80678;BME280;70042;52.494;5.502;2023-07-24T03:06:04;100389.31;;;22.41;60.86
80678;BME280;70042;52.494;5.502;2023-07-24T03:08:29;100387.59;;;22.40;60.79
80678;BME280;70042;52.494;5.502;2023-07-24T03:10:55;100391.19;;;22.39;61.04
80678;BME280;70042;52.494;5.502;2023-07-24T03:13:20;100396.53;;;22.39;61.07
80678;BME280;70042;52.494;5.502;2023-07-24T03:15:52;100401.84;;;22.39;61.15
80678;BME280;70042;52.494;5.502;2023-07-24T03:18:19;100400.13;;;22.38;61.05
80678;BME280;70042;52.494;5.502;2023-07-24T03:20:44;100394.78;;;22.38;61.15
80678;BME280;70042;52.494;5.502;2023-07-24T03:23:10;100389.47;;;22.38;61.07
80678;BME280;70042;52.494;5.502;2023-07-24T03:25:35;100381.47;;;22.38;60.86
80678;BME280;70042;52.494;5.502;2023-07-24T03:28:01;100384.13;;;22.38;60.73
80678;BME280;70042;52.494;5.502;2023-07-24T03:30:27;100383.22;;;22.39;61.29
80678;BME280;70042;52.494;5.502;2023-07-24T03:32:52;100375.22;;;22.39;60.89
80678;BME280;70042;52.494;5.502;2023-07-24T03:35:18;100361.91;;;22.39;61.06
80678;BME280;70042;52.494;5.502;2023-07-24T03:37:43;100366.31;;;22.40;60.78
80678;BME280;70042;52.494;5.502;2023-07-24T03:40:08;100371.63;;;22.40;61.00
80678;BME280;70042;52.494;5.502;2023-07-24T03:42:34;100363.66;;;22.40;61.17
80678;BME280;70042;52.494;5.502;2023-07-24T03:44:59;100377.81;;;22.41;60.75
80678;BME280;70042;52.494;5.502;2023-07-24T03:47:25;100370.78;;;22.40;61.07
80678;BME280;70042;52.494;5.502;2023-07-24T03:49:50;100360.97;;;22.40;61.14
80678;BME280;70042;52.494;5.502;2023-07-24T03:52:15;100357.53;;;22.38;60.95
80678;BME280;70042;52.494;5.502;2023-07-24T03:54:41;100346.88;;;22.38;60.78
80678;BME280;70042;52.494;5.502;2023-07-24T03:57:06;100354.97;;;22.37;61.13
80678;BME280;70042;52.494;5.502;2023-07-24T03:59:31;100351.44;;;22.36;60.95
80678;BME280;70042;52.494;5.502;2023-07-24T04:01:57;100352.34;;;22.35;61.04
80678;BME280;70042;52.494;5.502;2023-07-24T04:04:23;100345.34;;;22.34;61.01
80678;BME280;70042;52.494;5.502;2023-07-24T04:06:49;100352.53;;;22.32;60.86
80678;BME280;70042;52.494;5.502;2023-07-24T04:09:14;100356.06;;;22.32;61.19
80678;BME280;70042;52.494;5.502;2023-07-24T04:11:43;100356.91;;;22.33;60.82
80678;BME280;70042;52.494;5.502;2023-07-24T04:14:09;100350.72;;;22.32;61.21
80678;BME280;70042;52.494;5.502;2023-07-24T04:16:35;100355.97;;;22.34;61.18
80678;BME280;70042;52.494;5.502;2023-07-24T04:19:00;100358.66;;;22.34;60.98
80678;BME280;70042;52.494;5.502;2023-07-24T04:21:26;100362.13;;;22.34;61.27
80678;BME280;70042;52.494;5.502;2023-07-24T04:23:51;100355.97;;;22.34;60.85
80678;BME280;70042;52.494;5.502;2023-07-24T04:26:16;100364.81;;;22.34;60.69
80678;BME280;70042;52.494;5.502;2023-07-24T04:28:41;100362.13;;;22.34;61.02
80678;BME280;70042;52.494;5.502;2023-07-24T04:31:07;100348.00;;;22.34;61.15
80678;BME280;70042;52.494;5.502;2023-07-24T04:33:32;100354.25;;;22.33;61.21
80678;BME280;70042;52.494;5.502;2023-07-24T04:35:57;100352.53;;;22.32;60.90
80678;BME280;70042;52.494;5.502;2023-07-24T04:38:23;100360.50;;;22.32;61.12
80678;BME280;70042;52.494;5.502;2023-07-24T04:40:48;100363.16;;;22.32;60.79
80678;BME280;70042;52.494;5.502;2023-07-24T04:43:14;100358.88;;;22.29;61.08
80678;BME280;70042;52.494;5.502;2023-07-24T04:45:39;100363.31;;;22.29;61.15
80678;BME280;70042;52.494;5.502;2023-07-24T04:48:05;100355.34;;;22.29;61.18
80678;BME280;70042;52.494;5.502;2023-07-24T04:50:30;100357.06;;;22.30;61.20
80678;BME280;70042;52.494;5.502;2023-07-24T04:52:56;100356.16;;;22.31;61.06
80678;BME280;70042;52.494;5.502;2023-07-24T04:55:21;100361.47;;;22.31;61.11
80678;BME280;70042;52.494;5.502;2023-07-24T04:57:47;100356.97;;;22.31;61.18
80678;BME280;70042;52.494;5.502;2023-07-24T05:00:13;100355.19;;;22.32;60.89
80678;BME280;70042;52.494;5.502;2023-07-24T05:02:38;100359.56;;;22.33;61.05
80678;BME280;70042;52.494;5.502;2023-07-24T05:05:04;100355.13;;;22.33;61.15
80678;BME280;70042;52.494;5.502;2023-07-24T05:07:29;100352.47;;;22.33;60.98
80678;BME280;70042;52.494;5.502;2023-07-24T05:09:55;100348.94;;;22.33;60.99
80678;BME280;70042;52.494;5.502;2023-07-24T05:12:20;100349.78;;;22.33;60.83
80678;BME280;70042;52.494;5.502;2023-07-24T05:14:45;100355.97;;;22.34;61.12
80678;BME280;70042;52.494;5.502;2023-07-24T05:17:11;100355.13;;;22.33;61.08
80678;BME280;70042;52.494;5.502;2023-07-24T05:19:36;100354.16;;;22.34;60.88
80678;BME280;70042;52.494;5.502;2023-07-24T05:22:01;100349.78;;;22.33;61.09
80678;BME280;70042;52.494;5.502;2023-07-24T05:24:27;100353.38;;;22.32;61.05
80678;BME280;70042;52.494;5.502;2023-07-24T05:26:52;100352.53;;;22.32;60.95
80678;BME280;70042;52.494;5.502;2023-07-24T05:29:18;100357.84;;;22.32;61.01
80678;BME280;70042;52.494;5.502;2023-07-24T05:31:43;100356.97;;;22.31;61.12
80678;BME280;70042;52.494;5.502;2023-07-24T05:34:09;100366.78;;;22.31;60.91
80678;BME280;70042;52.494;5.502;2023-07-24T05:36:34;100370.38;;;22.30;60.96
80678;BME280;70042;52.494;5.502;2023-07-24T05:39:00;100363.25;;;22.30;61.12
80678;BME280;70042;52.494;5.502;2023-07-24T05:41:25;100366.78;;;22.31;61.01
80678;BME280;70042;52.494;5.502;2023-07-24T05:43:51;100363.25;;;22.30;60.83
80678;BME280;70042;52.494;5.502;2023-07-24T05:46:16;100356.97;;;22.31;61.09
80678;BME280;70042;52.494;5.502;2023-07-24T05:48:41;100357.84;;;22.32;60.88
80678;BME280;70042;52.494;5.502;2023-07-24T05:51:07;100366.63;;;22.34;61.00
80678;BME280;70042;52.494;5.502;2023-07-24T05:53:32;100368.44;;;22.33;60.70
80678;BME280;70042;52.494;5.502;2023-07-24T05:55:59;100364.03;;;22.32;60.80
80678;BME280;70042;52.494;5.502;2023-07-24T05:58:25;100354.25;;;22.33;60.77
80678;BME280;70042;52.494;5.502;2023-07-24T06:00:50;100353.38;;;22.32;61.05
80678;BME280;70042;52.494;5.502;2023-07-24T06:03:16;100364.03;;;22.32;61.00
80678;BME280;70042;52.494;5.502;2023-07-24T06:05:41;100359.56;;;22.33;60.86
80678;BME280;70042;52.494;5.502;2023-07-24T06:08:06;100352.53;;;22.32;60.77
80678;BME280;70042;52.494;5.502;2023-07-24T06:10:34;100359.56;;;22.33;60.89
80678;BME280;70042;52.494;5.502;2023-07-24T06:12:59;100345.50;;;22.31;61.00
80678;BME280;70042;52.494;5.502;2023-07-24T06:15:25;100349.09;;;22.30;60.57
80678;BME280;70042;52.494;5.502;2023-07-24T06:17:50;100357.84;;;22.32;60.78
80678;BME280;70042;52.494;5.502;2023-07-24T06:20:16;100356.06;;;22.32;60.70
80678;BME280;70042;52.494;5.502;2023-07-24T06:22:41;100364.81;;;22.34;60.79
80678;BME280;70042;52.494;5.502;2023-07-24T06:25:07;100357.69;;;22.35;60.88
80678;BME280;70042;52.494;5.502;2023-07-24T06:27:32;100357.69;;;22.35;60.83
80678;BME280;70042;52.494;5.502;2023-07-24T06:29:58;100354.84;;;22.38;60.72
80678;BME280;70042;52.494;5.502;2023-07-24T06:32:23;100357.47;;;22.40;60.63
80678;BME280;70042;52.494;5.502;2023-07-24T06:34:48;100352.03;;;22.41;60.66
80678;BME280;70042;52.494;5.502;2023-07-24T06:37:14;100347.41;;;22.45;60.65
80678;BME280;70042;52.494;5.502;2023-07-24T06:39:39;100344.69;;;22.46;60.55
80678;BME280;70042;52.494;5.502;2023-07-24T06:42:04;100356.03;;;22.50;60.75
80678;BME280;70042;52.494;5.502;2023-07-24T06:44:30;100365.66;;;22.52;60.76
80678;BME280;70042;52.494;5.502;2023-07-24T06:46:55;100362.84;;;22.55;60.76
80678;BME280;70042;52.494;5.502;2023-07-24T06:49:21;100373.50;;;22.55;60.85
80678;BME280;70042;52.494;5.502;2023-07-24T06:51:46;100365.41;;;22.57;60.76
80678;BME280;70042;52.494;5.502;2023-07-24T06:54:12;100358.13;;;22.60;60.70
80678;BME280;70042;52.494;5.502;2023-07-24T06:56:37;100366.97;;;22.61;60.57
80678;BME280;70042;52.494;5.502;2023-07-24T06:59:02;100371.25;;;22.63;60.86
80678;BME280;70042;52.494;5.502;2023-07-24T07:01:28;100365.00;;;22.64;60.91
80678;BME280;70042;52.494;5.502;2023-07-24T07:03:53;100366.78;;;22.65;61.06
80678;BME280;70042;52.494;5.502;2023-07-24T07:06:18;100366.78;;;22.65;61.20
80678;BME280;70042;52.494;5.502;2023-07-24T07:08:44;100376.41;;;22.68;61.11
80678;BME280;70042;52.494;5.502;2023-07-24T07:11:09;100368.41;;;22.68;61.56
80678;BME280;70042;52.494;5.502;2023-07-24T07:13:34;100369.28;;;22.68;60.90
80678;BME280;70042;52.494;5.502;2023-07-24T07:16:00;100366.44;;;22.71;61.30
80678;BME280;70042;52.494;5.502;2023-07-24T07:18:25;100376.13;;;22.72;60.87
80678;BME280;70042;52.494;5.502;2023-07-24T07:20:52;100365.47;;;22.72;61.09
80678;BME280;70042;52.494;5.502;2023-07-24T07:23:19;100374.34;;;22.73;60.98
80678;BME280;70042;52.494;5.502;2023-07-24T07:25:45;100378.78;;;22.72;60.62
80678;BME280;70042;52.494;5.502;2023-07-24T07:28:14;100376.06;;;22.74;60.54
80678;BME280;70042;52.494;5.502;2023-07-24T07:30:40;100377.97;;;22.72;60.63
80678;BME280;70042;52.494;5.502;2023-07-24T07:33:06;100372.63;;;22.72;60.75
80678;BME280;70042;52.494;5.502;2023-07-24T07:35:32;100368.84;;;22.76;61.27
80678;BME280;70042;52.494;5.502;2023-07-24T07:37:57;100372.22;;;22.79;62.31
80678;BME280;70042;52.494;5.502;2023-07-24T07:40:23;100372.22;;;22.79;61.69
80678;BME280;70042;52.494;5.502;2023-07-24T07:42:49;100367.69;;;22.81;61.33
80678;BME280;70042;52.494;5.502;2023-07-24T07:45:14;100371.19;;;22.82;61.24
80678;BME280;70042;52.494;5.502;2023-07-24T07:47:40;100371.09;;;22.83;61.10
80678;BME280;70042;52.494;5.502;2023-07-24T07:50:05;100364.91;;;22.83;60.95
80678;BME280;70042;52.494;5.502;2023-07-24T07:52:30;100360.44;;;22.83;61.00
80678;BME280;70042;52.494;5.502;2023-07-24T07:54:56;100367.50;;;22.84;61.00
80678;BME280;70042;52.494;5.502;2023-07-24T07:57:28;100357.56;;;22.88;60.86
80678;BME280;70042;52.494;5.502;2023-07-24T08:00:02;100353.00;;;22.90;60.59
80678;BME280;70042;52.494;5.502;2023-07-24T08:02:27;100353.94;;;22.89;60.62
80678;BME280;70042;52.494;5.502;2023-07-24T08:04:52;100355.66;;;22.90;60.54
80678;BME280;70042;52.494;5.502;2023-07-24T08:07:18;100349.28;;;22.93;60.37
80678;BME280;70042;52.494;5.502;2023-07-24T08:09:43;100352.72;;;22.95;60.38
80678;BME280;70042;52.494;5.502;2023-07-24T08:12:10;100344.72;;;22.95;60.45
80678;BME280;70042;52.494;5.502;2023-07-24T08:14:35;100351.88;;;22.94;60.18
80678;BME280;70042;52.494;5.502;2023-07-24T08:17:04;100344.84;;;22.93;60.49
80678;BME280;70042;52.494;5.502;2023-07-24T08:19:29;100343.09;;;22.92;60.36
80678;BME280;70042;52.494;5.502;2023-07-24T08:21:55;100338.63;;;22.93;60.11
80678;BME280;70042;52.494;5.502;2023-07-24T08:24:20;100348.25;;;22.95;60.25
80678;BME280;70042;52.494;5.502;2023-07-24T08:26:45;100337.59;;;22.95;60.11
80678;BME280;70042;52.494;5.502;2023-07-24T08:29:11;100338.47;;;22.96;59.89
80678;BME280;70042;52.494;5.502;2023-07-24T08:31:36;100336.84;;;22.93;60.23
80678;BME280;70042;52.494;5.502;2023-07-24T08:34:01;100342.22;;;22.92;60.09
80678;BME280;70042;52.494;5.502;2023-07-24T08:36:27;100339.41;;;22.95;60.00
80678;BME280;70042;52.494;5.502;2023-07-24T08:38:52;100343.63;;;22.99;60.23
80678;BME280;70042;52.494;5.502;2023-07-24T08:41:17;100332.63;;;23.05;59.78
80678;BME280;70042;52.494;5.502;2023-07-24T08:43:43;100335.91;;;23.10;59.78
80678;BME280;70042;52.494;5.502;2023-07-24T08:46:11;100348.09;;;23.14;59.53
80678;BME280;70042;52.494;5.502;2023-07-24T08:48:39;100341.66;;;23.18;59.77
80678;BME280;70042;52.494;5.502;2023-07-24T08:51:06;100341.44;;;23.22;59.33
80678;BME280;70042;52.494;5.502;2023-07-24T08:53:33;100348.28;;;23.26;59.18
80678;BME280;70042;52.494;5.502;2023-07-24T08:56:03;100338.47;;;23.27;58.67
80678;BME280;70042;52.494;5.502;2023-07-24T08:58:29;100333.78;;;23.32;59.13
80678;BME280;70042;52.494;5.502;2023-07-24T09:00:56;100330.31;;;23.30;59.11
80678;BME280;70042;52.494;5.502;2023-07-24T09:03:21;100333.66;;;23.33;58.87
80678;BME280;70042;52.494;5.502;2023-07-24T09:05:47;100334.53;;;23.34;59.08
80678;BME280;70042;52.494;5.502;2023-07-24T09:08:16;100339.94;;;23.32;59.02
80678;BME280;70042;52.494;5.502;2023-07-24T09:10:41;100322.81;;;23.36;58.91
80678;BME280;70042;52.494;5.502;2023-07-24T09:13:07;100317.19;;;23.43;58.76
80678;BME280;70042;52.494;5.502;2023-07-24T09:15:42;100328.53;;;23.46;58.70
80678;BME280;70042;52.494;5.502;2023-07-24T09:18:09;100328.34;;;23.49;58.52
80678;BME280;70042;52.494;5.502;2023-07-24T09:20:42;100322.84;;;23.52;58.47
80678;BME280;70042;52.494;5.502;2023-07-24T09:23:08;100313.13;;;23.51;58.41
80678;BME280;70042;52.494;5.502;2023-07-24T09:25:36;100321.13;;;23.51;58.49
80678;BME280;70042;52.494;5.502;2023-07-24T09:28:10;100312.19;;;23.52;58.53
80678;BME280;70042;52.494;5.502;2023-07-24T09:30:36;100322.84;;;23.52;58.50
80678;BME280;70042;52.494;5.502;2023-07-24T09:33:01;100318.38;;;23.53;58.54
80678;BME280;70042;52.494;5.502;2023-07-24T09:35:27;100319.41;;;23.50;58.33
80678;BME280;70042;52.494;5.502;2023-07-24T09:38:10;100314.09;;;23.50;58.59
80678;BME280;70042;52.494;5.502;2023-07-24T09:40:41;100310.38;;;23.53;58.38
80678;BME280;70042;52.494;5.502;2023-07-24T09:45:43;100310.53;;;23.65;58.09
80678;BME280;70042;52.494;5.502;2023-07-24T09:48:10;100307.69;;;23.68;58.05
80678;BME280;70042;52.494;5.502;2023-07-24T09:50:38;100300.72;;;23.66;58.11
80678;BME280;70042;52.494;5.502;2023-07-24T09:53:05;100309.59;;;23.66;58.11
80678;BME280;70042;52.494;5.502;2023-07-24T09:55:35;100307.84;;;23.65;58.11
80678;BME280;70042;52.494;5.502;2023-07-24T09:58:03;100300.03;;;23.62;58.13
80678;BME280;70042;52.494;5.502;2023-07-24T10:00:31;100284.97;;;23.61;57.93
80678;BME280;70042;52.494;5.502;2023-07-24T10:02:56;100289.56;;;23.59;58.03
80678;BME280;70042;52.494;5.502;2023-07-24T10:05:23;100288.00;;;23.55;58.25
80678;BME280;70042;52.494;5.502;2023-07-24T10:07:48;100288.88;;;23.56;58.10
80678;BME280;70042;52.494;5.502;2023-07-24T10:10:14;100284.56;;;23.53;58.28
80678;BME280;70042;52.494;5.502;2023-07-24T10:12:39;100297.91;;;23.53;58.41
80678;BME280;70042;52.494;5.502;2023-07-24T10:15:06;100301.50;;;23.52;58.53
80678;BME280;70042;52.494;5.502;2023-07-24T10:17:39;100299.78;;;23.51;58.74
80678;BME280;70042;52.494;5.502;2023-07-24T10:20:07;100292.56;;;23.53;58.61
80678;BME280;70042;52.494;5.502;2023-07-24T10:22:33;100286.31;;;23.54;58.67
80678;BME280;70042;52.494;5.502;2023-07-24T10:24:58;100291.34;;;23.59;58.89
80678;BME280;70042;52.494;5.502;2023-07-24T10:27:24;100291.47;;;23.57;58.85
80678;BME280;70042;52.494;5.502;2023-07-24T10:32:24;100288.09;;;23.54;58.84
80678;BME280;70042;52.494;5.502;2023-07-24T10:34:57;100295.81;;;23.58;58.98
80678;BME280;70042;52.494;5.502;2023-07-24T10:37:34;100295.47;;;23.64;59.05
80678;BME280;70042;52.494;5.502;2023-07-24T10:40:00;100302.53;;;23.65;58.96
80678;BME280;70042;52.494;5.502;2023-07-24T10:42:25;100289.25;;;23.64;59.04
80678;BME280;70042;52.494;5.502;2023-07-24T10:45:06;100291.00;;;23.65;58.93
80678;BME280;70042;52.494;5.502;2023-07-24T10:47:33;100294.44;;;23.67;58.86
80678;BME280;70042;52.494;5.502;2023-07-24T10:49:58;100299.50;;;23.71;58.79
80678;BME280;70042;52.494;5.502;2023-07-24T10:52:33;100292.84;;;23.78;58.80
80678;BME280;70042;52.494;5.502;2023-07-24T10:55:05;100294.59;;;23.79;58.95
80678;BME280;70042;52.494;5.502;2023-07-24T10:57:30;100296.09;;;23.83;58.71
80678;BME280;70042;52.494;5.502;2023-07-24T10:59:56;100298.59;;;23.86;58.69
80678;BME280;70042;52.494;5.502;2023-07-24T11:02:21;100292.19;;;23.89;58.52
80678;BME280;70042;52.494;5.502;2023-07-24T11:04:47;100299.38;;;23.88;58.47
80678;BME280;70042;52.494;5.502;2023-07-24T11:07:13;100296.72;;;23.88;59.05
80678;BME280;70042;52.494;5.502;2023-07-24T11:09:39;100298.91;;;23.96;59.03
80678;BME280;70042;52.494;5.502;2023-07-24T11:12:15;100292.63;;;23.97;59.00
80678;BME280;70042;52.494;5.502;2023-07-24T11:14:48;100287.84;;;24.02;58.81
80678;BME280;70042;52.494;5.502;2023-07-24T11:17:14;100287.00;;;24.02;58.87
80678;BME280;70042;52.494;5.502;2023-07-24T11:19:39;100281.94;;;23.97;58.76
80678;BME280;70042;52.494;5.502;2023-07-24T11:22:06;100289.09;;;23.97;58.65
80678;BME280;70042;52.494;5.502;2023-07-24T11:24:32;100288.16;;;23.98;58.89
80678;BME280;70042;52.494;5.502;2023-07-24T11:26:57;100283.84;;;23.95;58.91
80678;BME280;70042;52.494;5.502;2023-07-24T11:29:23;100280.41;;;23.93;59.34
80678;BME280;70042;52.494;5.502;2023-07-24T11:31:53;100295.56;;;23.92;59.13
80678;BME280;70042;52.494;5.502;2023-07-24T11:34:19;100298.41;;;23.89;59.20
80678;BME280;70042;52.494;5.502;2023-07-24T11:36:45;100290.59;;;23.86;59.34
80678;BME280;70042;52.494;5.502;2023-07-24T11:39:10;100295.91;;;23.86;59.09
80678;BME280;70042;52.494;5.502;2023-07-24T11:41:36;100291.38;;;23.88;58.93
80678;BME280;70042;52.494;5.502;2023-07-24T11:44:01;100291.25;;;23.90;58.83
80678;BME280;70042;52.494;5.502;2023-07-24T11:46:28;100285.94;;;23.90;58.81
80678;BME280;70042;52.494;5.502;2023-07-24T11:48:55;100305.53;;;23.89;58.64
80678;BME280;70042;52.494;5.502;2023-07-24T11:51:22;100302.81;;;23.90;58.75
80678;BME280;70042;52.494;5.502;2023-07-24T11:53:50;100304.53;;;23.92;58.48
80678;BME280;70042;52.494;5.502;2023-07-24T11:56:17;100297.28;;;23.94;58.74
80678;BME280;70042;52.494;5.502;2023-07-24T11:58:42;100296.53;;;23.92;58.83
80678;BME280;70042;52.494;5.502;2023-07-24T12:01:07;100302.81;;;23.90;58.72
80678;BME280;70042;52.494;5.502;2023-07-24T12:03:33;100301.19;;;23.88;58.70
80678;BME280;70042;52.494;5.502;2023-07-24T12:05:58;100306.41;;;23.89;58.64
80678;BME280;70042;52.494;5.502;2023-07-24T12:08:32;100300.88;;;23.92;58.50
80678;BME280;70042;52.494;5.502;2023-07-24T12:10:58;100304.06;;;23.99;58.28
80678;BME280;70042;52.494;5.502;2023-07-24T12:13:24;100315.50;;;24.01;58.10
80678;BME280;70042;52.494;5.502;2023-07-24T12:15:49;100318.00;;;24.04;58.23
80678;BME280;70042;52.494;5.502;2023-07-24T12:18:15;100315.03;;;24.09;58.21
80678;BME280;70042;52.494;5.502;2023-07-24T12:20:40;100315.66;;;24.14;57.96
80678;BME280;70042;52.494;5.502;2023-07-24T12:23:06;100319.09;;;24.16;57.98
80678;BME280;70042;52.494;5.502;2023-07-24T12:25:31;100312.53;;;24.21;57.84
80678;BME280;70042;52.494;5.502;2023-07-24T12:27:57;100306.13;;;24.24;57.62
80678;BME280;70042;52.494;5.502;2023-07-24T12:30:22;100303.13;;;24.30;57.51
80678;BME280;70042;52.494;5.502;2023-07-24T12:32:47;100305.59;;;24.33;57.26
80678;BME280;70042;52.494;5.502;2023-07-24T12:35:13;100305.22;;;24.39;57.17
80678;BME280;70042;52.494;5.502;2023-07-24T12:37:38;100305.22;;;24.39;57.24
80678;BME280;70042;52.494;5.502;2023-07-24T12:40:08;100305.78;;;24.44;57.13
80678;BME280;70042;52.494;5.502;2023-07-24T12:42:34;100310.19;;;24.45;57.10
80678;BME280;70042;52.494;5.502;2023-07-24T12:44:59;100319.13;;;24.44;57.18
80678;BME280;70042;52.494;5.502;2023-07-24T12:47:31;100312.94;;;24.43;57.18
80678;BME280;70042;52.494;5.502;2023-07-24T12:49:57;100321.91;;;24.42;57.08
80678;BME280;70042;52.494;5.502;2023-07-24T12:52:24;100323.63;;;24.43;56.94
80678;BME280;70042;52.494;5.502;2023-07-24T12:54:50;100329.06;;;24.42;56.92
80678;BME280;70042;52.494;5.502;2023-07-24T12:57:15;100325.53;;;24.41;56.87
80678;BME280;70042;52.494;5.502;2023-07-24T12:59:43;100325.59;;;24.40;57.00
80678;BME280;70042;52.494;5.502;2023-07-24T13:02:09;100335.44;;;24.39;56.96